Time;durP1;ratioP1;P1;durP2;ratioP2;P2;SDS_P1;SDS_P2;PMS_P1;PMS_P2;Temp;Humidity;BMP_temperature;BMP_pressure;BME280_temperature;BME280_humidity;BME280_pressure;Samples;Min_cycle;Max_cycle;Signal;HPM_P1;HPM_P2
2023/06/21 00:00:15;;;;;;;5.65;3.85;;;18.30;99.90;;;;;;7330073;32;21212;-56
2023/06/21 00:04:17;;;;;;;4.50;3.62;;;18.30;99.90;;;;;;7327311;32;20195;-56
2023/06/21 00:08:19;;;;;;;7.55;4.15;;;18.20;99.90;;;;;;7327386;32;20178;-56
2023/06/21 00:12:22;;;;;;;5.20;4.10;;;18.20;99.90;;;;;;7328584;32;20613;-57
2023/06/21 00:16:24;;;;;;;4.05;3.22;;;18.10;99.90;;;;;;7330646;32;20237;-57
2023/06/21 00:20:25;;;;;;;5.97;3.87;;;18.10;99.90;;;;;;7333667;32;20187;-57
2023/06/21 00:24:27;;;;;;;5.20;3.95;;;18.00;99.90;;;;;;7334015;32;20199;-57
2023/06/21 00:28:29;;;;;;;4.22;3.83;;;18.00;99.90;;;;;;7327028;32;20737;-57
2023/06/21 00:32:31;;;;;;;5.35;4.30;;;17.90;99.90;;;;;;7329994;32;20540;-57
2023/06/21 00:36:33;;;;;;;3.97;3.45;;;17.80;99.90;;;;;;7336127;32;20126;-57
2023/06/21 00:40:34;;;;;;;4.70;3.85;;;17.80;99.90;;;;;;7327785;32;20158;-56
2023/06/21 00:44:37;;;;;;;5.28;4.40;;;17.90;99.90;;;;;;7337073;32;20118;-56
2023/06/21 00:48:39;;;;;;;7.45;4.30;;;17.80;99.90;;;;;;7332785;32;20162;-56
2023/06/21 00:52:42;;;;;;;4.50;4.05;;;17.70;99.90;;;;;;7336162;32;20276;-56
2023/06/21 00:56:45;;;;;;;7.75;4.90;;;17.60;99.90;;;;;;7330879;32;20225;-58
2023/06/21 01:00:49;;;;;;;5.72;5.07;;;17.50;99.90;;;;;;7329646;32;21337;-56
2023/06/21 01:04:51;;;;;;;7.60;4.30;;;17.40;99.90;;;;;;7335203;32;20228;-56
2023/06/21 01:09:00;;;;;;;7.62;5.15;;;17.30;99.90;;;;;;7336447;32;20215;-56
2023/06/21 01:13:21;;;;;;;5.55;4.15;;;17.30;99.90;;;;;;7334781;32;20385;-55
2023/06/21 01:17:24;;;;;;;5.90;4.97;;;17.30;99.90;;;;;;7328989;32;20328;-57
2023/06/21 01:21:28;;;;;;;8.00;5.32;;;17.30;99.90;;;;;;7338603;32;20205;-57
2023/06/21 01:25:36;;;;;;;7.78;4.47;;;17.30;99.90;;;;;;7340990;32;20222;-56
2023/06/21 01:29:39;;;;;;;7.25;4.57;;;17.30;99.90;;;;;;7348930;32;20107;-56
2023/06/21 01:33:42;;;;;;;8.20;4.78;;;17.20;99.90;;;;;;7351702;32;20513;-56
2023/06/21 01:37:43;;;;;;;5.47;4.97;;;17.20;99.90;;;;;;7352767;32;20111;-56
2023/06/21 01:41:46;;;;;;;6.80;4.80;;;17.10;99.90;;;;;;7354363;32;20160;-56
2023/06/21 01:45:49;;;;;;;4.97;4.40;;;17.10;99.90;;;;;;7349982;32;20529;-56
2023/06/21 01:49:51;;;;;;;5.12;4.05;;;17.00;99.90;;;;;;7350592;32;20201;-58
2023/06/21 01:53:54;;;;;;;6.12;4.30;;;17.00;99.90;;;;;;7347929;32;20275;-57
2023/06/21 01:57:56;;;;;;;7.15;4.68;;;17.00;99.90;;;;;;7349400;32;20198;-57
2023/06/21 02:01:59;;;;;;;5.45;4.15;;;16.90;99.90;;;;;;7348801;32;20111;-56
2023/06/21 02:06:05;;;;;;;5.60;4.90;;;16.90;99.90;;;;;;7350086;32;20202;-58
2023/06/21 02:10:09;;;;;;;8.98;5.22;;;16.90;99.90;;;;;;7349911;32;20128;-56
2023/06/21 02:14:11;;;;;;;6.65;5.15;;;16.80;99.90;;;;;;7348069;32;20244;-56
2023/06/21 02:18:13;;;;;;;5.18;4.28;;;16.70;99.90;;;;;;7343807;32;20198;-56
2023/06/21 02:22:15;;;;;;;10.15;5.07;;;16.70;99.90;;;;;;7351306;32;20175;-56
2023/06/21 02:26:18;;;;;;;13.30;5.37;;;16.60;99.90;;;;;;7353293;32;20206;-56
2023/06/21 02:30:19;;;;;;;7.20;4.90;;;16.60;99.90;;;;;;7349189;32;20126;-56
2023/06/21 02:34:21;;;;;;;6.68;5.40;;;16.60;99.90;;;;;;7349134;32;20146;-56
2023/06/21 02:38:25;;;;;;;6.60;5.40;;;16.60;99.90;;;;;;7348513;32;20112;-57
2023/06/21 02:42:27;;;;;;;5.90;4.65;;;16.50;99.90;;;;;;7350490;32;20171;-56
2023/06/21 02:46:29;;;;;;;9.13;5.15;;;16.50;99.90;;;;;;7348080;32;20099;-56
2023/06/21 02:50:30;;;;;;;5.55;4.55;;;16.40;99.90;;;;;;7352072;32;20127;-55
2023/06/21 02:54:32;;;;;;;5.50;5.00;;;16.40;99.90;;;;;;7346174;32;20266;-56
2023/06/21 02:58:34;;;;;;;4.90;4.40;;;16.40;99.90;;;;;;7339609;32;20512;-55
2023/06/21 03:02:36;;;;;;;5.60;5.03;;;16.40;99.90;;;;;;7344856;32;20107;-56
2023/06/21 03:06:38;;;;;;;11.98;4.90;;;16.40;99.90;;;;;;7340128;32;20179;-55
2023/06/21 03:10:39;;;;;;;8.55;4.87;;;16.30;99.90;;;;;;7342166;32;20130;-56
2023/06/21 03:14:42;;;;;;;6.68;5.15;;;16.20;99.90;;;;;;7342100;32;20117;-56
2023/06/21 03:18:43;;;;;;;7.68;5.55;;;16.20;99.90;;;;;;7340587;32;20221;-57
2023/06/21 03:22:46;;;;;;;9.30;4.93;;;16.20;99.90;;;;;;7348578;32;20441;-56
2023/06/21 03:26:47;;;;;;;6.75;4.90;;;16.20;99.90;;;;;;7345633;32;20253;-56
2023/06/21 03:30:49;;;;;;;8.18;4.85;;;16.20;99.90;;;;;;7342864;32;20129;-56
2023/06/21 03:34:51;;;;;;;10.57;6.20;;;16.10;99.90;;;;;;7351532;32;20118;-56
2023/06/21 03:38:53;;;;;;;7.78;5.07;;;16.10;99.90;;;;;;7341063;32;20549;-56
2023/06/21 03:42:54;;;;;;;6.50;5.15;;;16.10;99.90;;;;;;7342488;32;20302;-57
2023/06/21 03:46:58;;;;;;;12.98;5.75;;;16.10;99.90;;;;;;7350354;32;20175;-56
2023/06/21 03:51:00;;;;;;;13.07;5.00;;;16.00;99.90;;;;;;7350150;32;20214;-56
2023/06/21 03:55:02;;;;;;;9.38;4.93;;;16.10;99.90;;;;;;7352083;32;20140;-56
2023/06/21 03:59:03;;;;;;;7.18;4.22;;;16.10;99.90;;;;;;7349796;32;20324;-56
2023/06/21 04:03:05;;;;;;;10.75;4.97;;;16.10;99.90;;;;;;7348114;32;20111;-56
2023/06/21 04:07:07;;;;;;;13.50;5.35;;;16.10;99.90;;;;;;7351328;32;20168;-56
2023/06/21 04:11:09;;;;;;;6.70;4.75;;;16.10;99.90;;;;;;7348691;32;20167;-56
2023/06/21 04:15:11;;;;;;;10.00;4.97;;;16.10;99.90;;;;;;7349649;32;20707;-56
2023/06/21 04:19:13;;;;;;;8.15;5.65;;;16.20;99.90;;;;;;7349993;32;20099;-55
2023/06/21 04:23:15;;;;;;;8.07;5.47;;;16.30;99.90;;;;;;7352014;32;20118;-56
2023/06/21 04:27:16;;;;;;;11.65;5.50;;;16.40;99.90;;;;;;7355787;32;20234;-56
2023/06/21 04:31:18;;;;;;;7.03;4.70;;;16.50;99.90;;;;;;7350576;32;20141;-56
2023/06/21 04:35:21;;;;;;;9.98;5.45;;;16.60;99.90;;;;;;7354193;32;20253;-56
2023/06/21 04:39:22;;;;;;;5.87;4.87;;;16.80;99.90;;;;;;7355211;32;20156;-55
2023/06/21 04:43:25;;;;;;;11.57;5.45;;;17.00;99.90;;;;;;7346147;32;20138;-56
2023/06/21 04:47:27;;;;;;;9.32;5.15;;;17.20;99.90;;;;;;7355701;32;20110;-58
2023/06/21 04:51:28;;;;;;;11.27;5.78;;;17.40;99.90;;;;;;7351418;32;20185;-57
2023/06/21 04:55:30;;;;;;;8.48;6.03;;;17.60;99.90;;;;;;7355445;32;20186;-58
2023/06/21 04:59:33;;;;;;;11.10;6.85;;;17.90;99.90;;;;;;7349623;32;20135;-57
2023/06/21 05:03:34;;;;;;;11.40;7.80;;;18.50;99.90;;;;;;7355585;32;20610;-58
2023/06/21 05:07:38;;;;;;;10.52;7.28;;;18.90;99.90;;;;;;7352425;32;20580;-58
2023/06/21 05:11:40;;;;;;;9.50;7.10;;;19.40;99.90;;;;;;7355125;32;20521;-57
2023/06/21 05:15:42;;;;;;;11.65;7.15;;;19.80;99.90;;;;;;7350728;32;20125;-56
2023/06/21 05:19:44;;;;;;;9.32;7.12;;;20.00;99.90;;;;;;7351726;32;20315;-58
2023/06/21 05:23:45;;;;;;;10.07;7.37;;;20.10;99.90;;;;;;7355347;32;20129;-56
2023/06/21 05:27:47;;;;;;;10.55;6.93;;;20.20;99.90;;;;;;7353028;32;20634;-57
2023/06/21 05:31:49;;;;;;;7.45;6.40;;;20.30;99.90;;;;;;7355674;32;20143;-57
2023/06/21 05:35:50;;;;;;;11.23;6.97;;;20.30;99.90;;;;;;7347735;32;20131;-56
2023/06/21 05:39:52;;;;;;;9.65;6.37;;;20.30;99.90;;;;;;7340200;32;20198;-57
2023/06/21 05:43:54;;;;;;;10.90;7.32;;;20.10;99.90;;;;;;7341798;32;20142;-57
2023/06/21 05:48:00;;;;;;;8.95;7.30;;;20.10;99.90;;;;;;7341426;32;20202;-58
2023/06/21 05:52:02;;;;;;;8.52;7.07;;;19.90;99.90;;;;;;7347547;32;20186;-58
2023/06/21 05:56:04;;;;;;;8.10;7.20;;;19.90;99.90;;;;;;7345375;32;20589;-59
2023/06/21 06:00:09;;;;;;;9.77;7.55;;;20.10;99.90;;;;;;7351823;32;20126;-60
2023/06/21 06:04:10;;;;;;;9.95;7.75;;;20.10;99.90;;;;;;7345950;32;20183;-57
2023/06/21 06:08:12;;;;;;;8.98;8.10;;;20.50;99.90;;;;;;7345149;32;20142;-57
2023/06/21 06:12:14;;;;;;;10.13;8.52;;;20.40;99.90;;;;;;7340484;32;20179;-57
2023/06/21 06:16:16;;;;;;;11.43;8.27;;;20.50;99.90;;;;;;7344444;32;20190;-57
2023/06/21 06:20:18;;;;;;;11.27;8.65;;;20.50;99.90;;;;;;7345183;32;20827;-57
2023/06/21 06:24:20;;;;;;;11.98;9.75;;;20.60;99.90;;;;;;7343029;32;20186;-58
2023/06/21 06:28:21;;;;;;;11.57;9.50;;;20.60;99.90;;;;;;7338755;32;20534;-56
2023/06/21 06:32:23;;;;;;;9.20;8.20;;;20.50;99.90;;;;;;7343754;32;20111;-57
2023/06/21 06:36:25;;;;;;;12.07;9.02;;;20.60;99.90;;;;;;7354041;32;20107;-59
2023/06/21 06:40:27;;;;;;;10.73;9.38;;;20.80;99.90;;;;;;7342722;32;20770;-58
2023/06/21 06:44:29;;;;;;;11.80;9.70;;;20.80;99.90;;;;;;7353575;32;20117;-57
2023/06/21 06:48:31;;;;;;;11.00;8.70;;;20.90;99.90;;;;;;7346594;32;20424;-58
2023/06/21 06:52:32;;;;;;;10.23;9.15;;;21.10;99.90;;;;;;7344341;32;20217;-58
2023/06/21 06:56:34;;;;;;;13.93;9.70;;;21.20;99.90;;;;;;7343987;32;20924;-58
2023/06/21 07:00:36;;;;;;;11.23;9.07;;;21.40;99.90;;;;;;7348214;32;20111;-58
2023/06/21 07:04:38;;;;;;;10.80;9.70;;;21.40;99.90;;;;;;7354943;32;20650;-58
2023/06/21 07:08:44;;;;;;;17.92;9.52;;;21.40;99.90;;;;;;7348108;32;20126;-57
2023/06/21 07:12:46;;;;;;;12.07;9.75;;;21.40;99.90;;;;;;7342410;32;20186;-57
2023/06/21 07:16:50;;;;;;;16.08;10.68;;;21.40;99.90;;;;;;7344092;32;20366;-57
2023/06/21 07:20:52;;;;;;;11.52;9.82;;;21.50;99.90;;;;;;7343474;32;20318;-58
2023/06/21 07:24:54;;;;;;;14.43;10.10;;;21.50;99.90;;;;;;7338883;32;20208;-58
2023/06/21 07:28:56;;;;;;;15.80;9.43;;;21.60;99.90;;;;;;7344034;32;20655;-57
2023/06/21 07:32:58;;;;;;;12.15;9.40;;;21.70;99.90;;;;;;7340138;32;20206;-57
2023/06/21 07:37:00;;;;;;;19.60;10.70;;;21.80;99.90;;;;;;7339799;32;20178;-57
2023/06/21 07:41:02;;;;;;;12.75;9.43;;;21.90;99.90;;;;;;7339414;32;20224;-58
2023/06/21 07:45:05;;;;;;;11.45;9.10;;;22.00;99.90;;;;;;7342106;32;20615;-58
2023/06/21 07:49:07;;;;;;;13.20;9.30;;;22.10;99.90;;;;;;7340393;32;20306;-58
2023/06/21 07:53:09;;;;;;;13.65;8.93;;;22.30;99.90;;;;;;7338799;32;20191;-57
2023/06/21 07:57:10;;;;;;;11.45;8.80;;;22.70;99.90;;;;;;7341433;32;20234;-57
2023/06/21 08:01:12;;;;;;;12.55;8.88;;;23.00;99.90;;;;;;7341772;32;20194;-58
2023/06/21 08:05:14;;;;;;;10.82;9.07;;;23.00;99.90;;;;;;7342408;32;20322;-57
2023/06/21 08:09:16;;;;;;;9.80;8.80;;;23.00;99.90;;;;;;7337774;32;20663;-58
2023/06/21 08:13:22;;;;;;;11.50;9.57;;;22.80;99.90;;;;;;7342825;32;20320;-57
2023/06/21 08:17:24;;;;;;;9.07;7.82;;;22.60;99.90;;;;;;7344197;32;20208;-57
2023/06/21 08:21:26;;;;;;;10.68;8.57;;;22.70;99.90;;;;;;7339200;32;20186;-56
2023/06/21 08:25:28;;;;;;;9.70;7.90;;;22.90;99.90;;;;;;7342531;32;20186;-58
2023/06/21 08:29:31;;;;;;;10.55;7.85;;;23.60;99.90;;;;;;7339520;32;20193;-57
2023/06/21 08:33:33;;;;;;;9.88;7.45;;;23.80;99.90;;;;;;7340714;32;20781;-57
2023/06/21 08:37:34;;;;;;;8.98;7.65;;;23.70;99.90;;;;;;7347413;32;20186;-57
2023/06/21 08:41:38;;;;;;;9.05;6.82;;;24.10;99.90;;;;;;7349534;32;20221;-57
2023/06/21 08:45:41;;;;;;;8.70;7.35;;;24.60;99.90;;;;;;7356390;32;20384;-57
2023/06/21 08:49:46;;;;;;;9.40;6.72;;;24.80;99.90;;;;;;7350753;32;20135;-57
2023/06/21 08:54:00;;;;;;;7.15;6.45;;;24.20;99.90;;;;;;7350764;32;20543;-57
2023/06/21 08:58:25;;;;;;;10.70;7.80;;;23.80;99.90;;;;;;7348936;32;20275;-56
2023/06/21 09:02:53;;;;;;;8.48;7.20;;;23.60;99.90;;;;;;7342808;32;20296;-57
2023/06/21 09:06:55;;;;;;;7.90;7.10;;;24.10;99.90;;;;;;7333558;32;20224;-57
2023/06/21 09:10:58;;;;;;;6.85;6.25;;;24.80;99.90;;;;;;7355064;32;20116;-57
2023/06/21 09:15:02;;;;;;;9.30;6.90;;;25.00;99.90;;;;;;7351139;32;20717;-57
2023/06/21 09:19:04;;;;;;;7.37;6.53;;;25.00;99.90;;;;;;7340934;32;20561;-57
2023/06/21 09:23:06;;;;;;;8.95;6.47;;;24.70;99.90;;;;;;7342483;32;20301;-57
2023/06/21 09:27:08;;;;;;;9.52;7.25;;;25.00;99.90;;;;;;7347896;32;20699;-56
2023/06/21 09:31:10;;;;;;;8.13;6.78;;;25.40;99.90;;;;;;7339771;32;20167;-55
2023/06/21 09:35:15;;;;;;;8.75;6.75;;;26.00;99.90;;;;;;7339438;32;20194;-56
2023/06/21 09:39:17;;;;;;;9.27;7.25;;;25.90;99.90;;;;;;7347647;32;20262;-56
2023/06/21 09:43:20;;;;;;;8.77;6.87;;;25.10;99.90;;;;;;7342413;32;20190;-56
2023/06/21 09:47:22;;;;;;;9.00;7.25;;;24.80;99.90;;;;;;7342710;32;20253;-57
2023/06/21 09:51:24;;;;;;;7.78;6.85;;;24.60;99.90;;;;;;7336654;32;20538;-56
2023/06/21 09:55:26;;;;;;;7.65;6.15;;;24.60;99.90;;;;;;7340692;32;20243;-55
2023/06/21 09:59:27;;;;;;;6.25;5.55;;;25.40;99.90;;;;;;7337494;32;20285;-56
2023/06/21 10:03:29;;;;;;;8.05;5.78;;;25.40;99.90;;;;;;7341473;32;20140;-55
2023/06/21 10:07:31;;;;;;;6.68;5.60;;;25.30;99.90;;;;;;7338558;32;20514;-56
2023/06/21 10:11:33;;;;;;;7.10;5.93;;;25.90;99.90;;;;;;7345014;32;20477;-57
2023/06/21 10:15:35;;;;;;;6.57;5.97;;;26.40;99.90;;;;;;7346072;32;20230;-56
2023/06/21 10:19:38;;;;;;;6.50;5.80;;;26.70;99.90;;;;;;7342641;32;20940;-57
2023/06/21 10:23:42;;;;;;;8.48;5.80;;;26.20;99.90;;;;;;7341887;32;20290;-56
2023/06/21 10:27:46;;;;;;;7.00;5.87;;;26.30;99.90;;;;;;7340064;32;20191;-56
2023/06/21 10:31:50;;;;;;;7.82;5.82;;;26.20;99.90;;;;;;7340005;32;20231;-56
2023/06/21 10:35:56;;;;;;;8.07;6.35;;;26.30;99.90;;;;;;7333145;32;20179;-56
2023/06/21 10:40:05;;;;;;;7.35;6.10;;;26.60;99.90;;;;;;7339355;32;20198;-55
2023/06/21 10:44:16;;;;;;;6.30;5.28;;;26.60;99.90;;;;;;7335476;32;20201;-56
2023/06/21 10:48:24;;;;;;;8.35;5.10;;;26.10;99.90;;;;;;7338051;32;20217;-55
2023/06/21 10:52:26;;;;;;;8.68;5.40;;;26.00;99.90;;;;;;7340650;32;20382;-55
2023/06/21 10:56:29;;;;;;;8.10;4.87;;;26.20;99.90;;;;;;7339682;32;20226;-56
2023/06/21 11:00:31;;;;;;;7.43;4.78;;;26.50;99.90;;;;;;7336573;32;20528;-56
2023/06/21 11:05:11;;;;;;;11.20;4.30;;;27.00;99.90;;;;;;7341479;32;20179;-57
2023/06/21 11:09:17;;;;;;;7.47;6.40;;;27.20;99.90;;;;;;7347412;32;20107;-56
2023/06/21 11:13:38;;;;;;;;;;;27.60;99.90;;;;;;7348749;32;20155;-57
2023/06/21 11:17:40;;;;;;;7.62;5.80;;;27.20;99.90;;;;;;7349579;32;20541;-57
2023/06/21 11:21:49;;;;;;;7.53;4.90;;;27.70;99.90;;;;;;7346680;32;20141;-57
2023/06/21 11:25:51;;;;;;;7.93;5.00;;;27.50;99.90;;;;;;7348698;32;20123;-57
2023/06/21 11:30:09;;;;;;;9.38;5.47;;;27.30;99.90;;;;;;7342385;32;20553;-57
2023/06/21 11:34:24;;;;;;;6.32;5.20;;;27.40;99.90;;;;;;7351572;32;20102;-56
2023/06/21 11:38:26;;;;;;;7.90;5.37;;;27.20;99.90;;;;;;7346195;32;21477;-57
2023/06/21 11:42:36;;;;;;;5.00;4.60;;;27.50;99.90;;;;;;7349258;32;20482;-57
2023/06/21 11:46:40;;;;;;;4.40;3.58;;;27.30;99.90;;;;;;7352140;32;20235;-56
2023/06/21 11:50:48;;;;;;;4.60;4.15;;;27.70;99.90;;;;;;7345945;32;20111;-56
2023/06/21 11:54:50;;;;;;;4.18;3.78;;;27.90;99.90;;;;;;7349184;32;20133;-56
2023/06/21 11:58:53;;;;;;;5.18;3.78;;;27.80;99.90;;;;;;7344821;32;20168;-56
2023/06/21 12:02:54;;;;;;;5.57;4.15;;;27.20;99.90;;;;;;7347406;32;20253;-56
2023/06/21 12:06:57;;;;;;;3.60;3.05;;;27.30;99.90;;;;;;7349705;32;20119;-57
2023/06/21 12:11:04;;;;;;;6.18;3.50;;;27.80;99.90;;;;;;7350186;32;20129;-56
2023/06/21 12:15:06;;;;;;;5.40;3.62;;;28.10;99.90;;;;;;7350214;32;20129;-56
2023/06/21 12:19:11;;;;;;;6.22;3.72;;;28.60;99.90;;;;;;7346142;32;20629;-56
2023/06/21 12:23:13;;;;;;;6.62;3.60;;;28.40;99.90;;;;;;7347122;32;20202;-57
2023/06/21 12:27:16;;;;;;;4.35;3.33;;;28.70;99.90;;;;;;7349175;32;20204;-56
2023/06/21 12:31:18;;;;;;;4.05;3.20;;;29.00;99.90;;;;;;7353249;32;20155;-55
2023/06/21 12:35:21;;;;;;;5.12;2.72;;;29.30;99.90;;;;;;7351460;32;20206;-56
2023/06/21 12:39:23;;;;;;;4.37;3.05;;;29.80;99.90;;;;;;7344233;32;20611;-57
2023/06/21 12:43:42;;;;;;;3.92;2.87;;;30.10;99.90;;;;;;7353230;32;20280;-57
2023/06/21 12:47:47;;;;;;;5.35;3.60;;;30.20;99.90;;;;;;7351512;32;20104;-57
2023/06/21 12:51:50;;;;;;;5.43;2.90;;;30.30;99.90;;;;;;7354148;32;20126;-57
2023/06/21 12:55:52;;;;;;;4.37;2.70;;;30.50;99.90;;;;;;7352820;32;20126;-60
2023/06/21 12:59:54;;;;;;;4.12;3.62;;;30.30;99.90;;;;;;7351501;32;20156;-58
2023/06/21 13:03:56;;;;;;;4.53;2.80;;;30.40;99.90;;;;;;7355387;32;20325;-56
2023/06/21 13:07:58;;;;;;;4.65;3.12;;;30.90;98.00;;;;;;7347729;32;20186;-57
2023/06/21 13:12:00;;;;;;;3.22;2.92;;;30.60;98.80;;;;;;7351549;32;20111;-57
2023/06/21 13:16:02;;;;;;;3.30;2.90;;;30.40;98.80;;;;;;7349322;32;20118;-58
2023/06/21 13:20:05;;;;;;;2.95;2.53;;;30.40;97.60;;;;;;7353572;32;20677;-59
2023/06/21 13:24:07;;;;;;;5.22;3.15;;;29.40;99.30;;;;;;7351656;32;20126;-57
2023/06/21 13:28:09;;;;;;;3.87;3.50;;;29.10;99.90;;;;;;7348302;32;20168;-56
2023/06/21 13:32:10;;;;;;;5.07;3.65;;;28.70;99.90;;;;;;7351579;32;20249;-55
2023/06/21 13:36:14;;;;;;;4.72;3.60;;;29.20;99.90;;;;;;7349013;32;20130;-55
2023/06/21 13:40:16;;;;;;;3.08;2.78;;;29.10;99.90;;;;;;7345675;32;20509;-56
2023/06/21 13:44:18;;;;;;;4.15;2.80;;;29.00;99.50;;;;;;7349859;32;20168;-55
2023/06/21 13:48:20;;;;;;;3.62;2.80;;;29.10;99.00;;;;;;7349956;32;20114;-55
2023/06/21 13:52:23;;;;;;;4.90;3.15;;;29.20;99.90;;;;;;7348415;32;20172;-56
2023/06/21 13:56:24;;;;;;;3.33;2.92;;;29.40;98.80;;;;;;7346115;32;20226;-56
2023/06/21 14:00:27;;;;;;;4.32;2.80;;;29.10;99.60;;;;;;7346749;32;20261;-55
2023/06/21 14:04:29;;;;;;;3.95;2.95;;;28.30;99.80;;;;;;7344298;32;20222;-55
2023/06/21 14:08:31;;;;;;;5.12;3.08;;;28.60;99.40;;;;;;7350979;32;20103;-58
2023/06/21 14:12:33;;;;;;;3.45;2.60;;;29.20;98.50;;;;;;7350011;32;20542;-57
2023/06/21 14:16:35;;;;;;;3.95;2.50;;;29.70;96.30;;;;;;7344023;32;20264;-57
2023/06/21 14:20:37;;;;;;;4.65;3.20;;;30.00;94.40;;;;;;7348521;32;20350;-58
2023/06/21 14:24:39;;;;;;;4.47;3.20;;;30.30;95.40;;;;;;7351825;32;20855;-57
2023/06/21 14:28:42;;;;;;;3.20;2.90;;;30.80;95.60;;;;;;7351541;32;20726;-57
2023/06/21 14:32:44;;;;;;;4.50;3.05;;;30.70;93.50;;;;;;7349513;32;20103;-58
2023/06/21 14:36:46;;;;;;;6.43;3.00;;;30.00;95.50;;;;;;7348221;32;20234;-59
2023/06/21 14:40:48;;;;;;;4.90;2.90;;;30.00;95.20;;;;;;7347609;32;20742;-57
2023/06/21 14:44:50;;;;;;;6.50;2.45;;;30.20;95.10;;;;;;7349397;32;20163;-58
2023/06/21 14:48:55;;;;;;;3.45;2.72;;;30.60;93.50;;;;;;7347200;32;20271;-57
2023/06/21 14:52:56;;;;;;;3.08;2.30;;;30.90;93.50;;;;;;7350712;32;20763;-58
2023/06/21 14:56:58;;;;;;;3.87;3.08;;;30.90;90.30;;;;;;7350620;32;20187;-58
2023/06/21 15:01:00;;;;;;;4.07;3.10;;;30.60;90.80;;;;;;7349124;32;20194;-58
2023/06/21 15:05:02;;;;;;;4.78;3.95;;;30.10;92.40;;;;;;7347710;32;20658;-57
2023/06/21 15:09:04;;;;;;;4.18;3.40;;;30.40;92.90;;;;;;7344534;32;20125;-58
2023/06/21 15:13:05;;;;;;;5.45;3.92;;;30.50;92.70;;;;;;7346512;32;20121;-57
2023/06/21 15:17:07;;;;;;;6.28;3.28;;;30.80;91.20;;;;;;7350728;32;20297;-57
2023/06/21 15:21:09;;;;;;;4.10;3.70;;;30.30;91.90;;;;;;7351485;32;20123;-58
2023/06/21 15:25:11;;;;;;;4.10;3.70;;;29.90;93.30;;;;;;7351103;32;20506;-58
2023/06/21 15:29:13;;;;;;;5.00;3.85;;;29.00;93.80;;;;;;7349703;32;20266;-57
2023/06/21 15:33:15;;;;;;;4.05;3.37;;;28.60;95.00;;;;;;7349696;32;20248;-58
2023/06/21 15:37:17;;;;;;;3.92;3.20;;;28.00;95.80;;;;;;7351700;32;20762;-58
2023/06/21 15:41:19;;;;;;;3.25;2.95;;;27.90;96.00;;;;;;7351322;32;20626;-56
2023/06/21 15:45:21;;;;;;;8.95;3.33;;;27.90;94.30;;;;;;7346212;32;20367;-55
2023/06/21 15:49:22;;;;;;;7.70;3.10;;;28.00;94.60;;;;;;7347060;32;20123;-56
2023/06/21 15:53:24;;;;;;;4.80;2.75;;;28.00;95.30;;;;;;7353581;32;20435;-56
2023/06/21 15:57:26;;;;;;;3.35;3.05;;;27.90;94.60;;;;;;7346664;32;20121;-57
2023/06/21 16:01:28;;;;;;;6.22;3.10;;;27.80;95.50;;;;;;7353468;32;20273;-57
2023/06/21 16:05:29;;;;;;;4.03;3.20;;;27.80;96.00;;;;;;7350474;32;20102;-58
2023/06/21 16:09:31;;;;;;;4.07;3.33;;;27.70;95.10;;;;;;7350658;32;20201;-58
2023/06/21 16:13:34;;;;;;;3.87;2.80;;;27.60;95.20;;;;;;7354441;32;20127;-57
2023/06/21 16:17:47;;;;;;;3.30;2.60;;;27.40;96.10;;;;;;7353582;32;20306;-57
2023/06/21 16:21:49;;;;;;;3.92;2.83;;;27.30;95.90;;;;;;7353244;32;20219;-58
2023/06/21 16:25:52;;;;;;;4.05;2.72;;;27.40;95.90;;;;;;7355141;32;20611;-57
2023/06/21 16:29:54;;;;;;;4.03;2.83;;;27.20;95.80;;;;;;7352158;32;20129;-58
2023/06/21 16:33:59;;;;;;;3.70;2.60;;;27.20;95.30;;;;;;7352568;32;20121;-56
2023/06/21 16:38:00;;;;;;;4.15;3.00;;;27.20;96.20;;;;;;7352420;32;20175;-57
2023/06/21 16:42:02;;;;;;;4.25;2.60;;;27.10;95.00;;;;;;7355013;32;20107;-57
2023/06/21 16:46:04;;;;;;;3.70;2.67;;;27.10;94.90;;;;;;7353342;32;20610;-58
2023/06/21 16:50:06;;;;;;;3.33;2.05;;;26.90;94.60;;;;;;7357266;32;20745;-57
2023/06/21 16:54:08;;;;;;;5.72;2.28;;;26.90;95.30;;;;;;7354193;32;20245;-59
2023/06/21 16:58:09;;;;;;;3.42;2.35;;;26.90;96.40;;;;;;7351550;32;20253;-58
2023/06/21 17:02:11;;;;;;;3.87;2.33;;;27.00;95.70;;;;;;7347558;32;20769;-58
2023/06/21 17:06:13;;;;;;;3.87;2.30;;;27.00;96.10;;;;;;7352569;32;20103;-57
2023/06/21 17:10:16;;;;;;;3.25;2.53;;;26.90;95.20;;;;;;7351868;32;20103;-58
2023/06/21 17:14:18;;;;;;;2.80;2.15;;;26.70;95.40;;;;;;7351949;32;20194;-57
2023/06/21 17:18:20;;;;;;;2.87;2.40;;;26.50;95.40;;;;;;7351735;32;20310;-58
2023/06/21 17:22:21;;;;;;;3.10;2.20;;;26.20;97.30;;;;;;7355101;32;20182;-57
2023/06/21 17:26:23;;;;;;;3.30;2.37;;;26.10;96.90;;;;;;7352018;32;20186;-58
2023/06/21 17:30:25;;;;;;;5.57;2.97;;;26.10;97.10;;;;;;7350745;32;20162;-57
2023/06/21 17:34:27;;;;;;;3.55;2.30;;;26.00;97.20;;;;;;7356576;32;20095;-57
2023/06/21 17:38:28;;;;;;;4.55;2.40;;;26.00;98.20;;;;;;7352866;32;20095;-58
2023/06/21 17:42:30;;;;;;;5.82;2.40;;;25.90;97.80;;;;;;7350789;32;20451;-56
2023/06/21 17:46:32;;;;;;;4.68;2.60;;;25.90;97.70;;;;;;7350798;32;20926;-57
2023/06/21 17:50:33;;;;;;;3.37;2.28;;;25.90;99.10;;;;;;7346238;32;20258;-58
2023/06/21 17:54:36;;;;;;;5.32;2.40;;;25.90;98.80;;;;;;7345417;32;20107;-57
2023/06/21 17:58:38;;;;;;;6.72;2.45;;;25.70;99.50;;;;;;7350529;32;20298;-58
2023/06/21 18:02:40;;;;;;;4.50;2.55;;;25.80;98.50;;;;;;7347392;32;20182;-57
2023/06/21 18:06:42;;;;;;;6.03;2.45;;;25.70;99.90;;;;;;7347454;32;20107;-56
2023/06/21 18:10:43;;;;;;;3.62;2.70;;;25.50;99.90;;;;;;7353214;32;20149;-58
2023/06/21 18:14:45;;;;;;;4.82;2.50;;;25.40;99.90;;;;;;7349535;32;20099;-57
2023/06/21 18:18:47;;;;;;;3.87;2.60;;;25.40;99.90;;;;;;7354756;32;20161;-58
2023/06/21 18:22:48;;;;;;;2.83;2.28;;;25.50;99.90;;;;;;7352561;32;20276;-58
2023/06/21 18:26:50;;;;;;;3.15;2.50;;;25.30;99.90;;;;;;7351029;32;20615;-59
2023/06/21 18:30:52;;;;;;;4.97;2.83;;;25.20;99.90;;;;;;7353242;32;20808;-59
2023/06/21 18:34:54;;;;;;;4.68;2.58;;;25.20;99.90;;;;;;7353059;32;20911;-58
2023/06/21 18:38:56;;;;;;;6.93;2.80;;;25.10;99.90;;;;;;7354654;32;20592;-59
2023/06/21 18:42:57;;;;;;;8.10;2.80;;;25.00;99.90;;;;;;7355208;32;20166;-59
2023/06/21 18:47:00;;;;;;;3.37;3.00;;;24.70;99.90;;;;;;7353504;32;20111;-59
2023/06/21 18:51:01;;;;;;;3.92;2.65;;;24.50;99.90;;;;;;7347504;32;20123;-59
2023/06/21 18:55:04;;;;;;;6.30;2.55;;;24.60;99.90;;;;;;7346854;32;21013;-60
2023/06/21 18:59:07;;;;;;;4.43;2.80;;;24.40;99.90;;;;;;7347181;32;20130;-57
2023/06/21 19:03:11;;;;;;;7.20;2.33;;;24.30;99.90;;;;;;7348631;32;20206;-56
2023/06/21 19:07:13;;;;;;;4.55;2.50;;;24.20;99.90;;;;;;7346637;32;20167;-57
2023/06/21 19:11:14;;;;;;;5.18;3.08;;;24.00;99.90;;;;;;7345529;32;20099;-57
2023/06/21 19:15:16;;;;;;;8.38;2.90;;;23.80;99.90;;;;;;7344960;32;20111;-56
2023/06/21 19:19:18;;;;;;;7.95;3.00;;;23.60;99.90;;;;;;7348121;32;20577;-55
2023/06/21 19:23:21;;;;;;;6.57;3.10;;;23.70;99.90;;;;;;7345465;32;20209;-57
2023/06/21 19:27:23;;;;;;;3.25;2.45;;;23.30;99.90;;;;;;7348907;32;20465;-57
2023/06/21 19:31:25;;;;;;;3.47;2.53;;;23.00;99.90;;;;;;7343195;32;20124;-58
2023/06/21 19:35:27;;;;;;;4.28;3.30;;;22.80;99.90;;;;;;7348021;32;20263;-58
2023/06/21 19:39:29;;;;;;;6.53;2.80;;;22.60;99.90;;;;;;7344591;32;20478;-56
2023/06/21 19:43:30;;;;;;;6.62;3.00;;;22.60;99.90;;;;;;7352377;32;20167;-56
2023/06/21 19:47:32;;;;;;;5.25;2.90;;;22.40;99.90;;;;;;7350322;32;20582;-57
2023/06/21 19:51:34;;;;;;;9.40;3.28;;;22.00;99.90;;;;;;7349009;32;20151;-56
2023/06/21 19:55:36;;;;;;;5.37;3.65;;;21.80;99.90;;;;;;7348734;32;20242;-57
2023/06/21 19:59:37;;;;;;;4.12;2.60;;;21.50;99.90;;;;;;7353303;32;20581;-57
2023/06/21 20:03:39;;;;;;;5.18;2.90;;;21.40;99.90;;;;;;7346503;32;20602;-56
2023/06/21 20:07:41;;;;;;;4.28;3.05;;;21.30;99.90;;;;;;7349855;32;20095;-56
2023/06/21 20:11:43;;;;;;;4.85;3.00;;;21.20;99.90;;;;;;7351578;32;20506;-57
2023/06/21 20:15:45;;;;;;;4.50;2.70;;;20.90;99.90;;;;;;7353704;32;20225;-57
2023/06/21 20:19:47;;;;;;;7.87;3.28;;;20.70;99.90;;;;;;7352833;32;20515;-57
2023/06/21 20:23:48;;;;;;;7.12;3.17;;;20.50;99.90;;;;;;7352294;32;20613;-57
2023/06/21 20:27:50;;;;;;;4.37;3.05;;;20.50;99.90;;;;;;7351379;32;20111;-57
2023/06/21 20:31:52;;;;;;;5.15;3.00;;;20.50;99.90;;;;;;7350536;32;20122;-56
2023/06/21 20:35:54;;;;;;;5.28;3.17;;;20.50;99.90;;;;;;7353984;32;20121;-56
2023/06/21 20:39:57;;;;;;;5.95;3.47;;;20.40;99.90;;;;;;7352795;32;20517;-56
2023/06/21 20:44:00;;;;;;;7.45;3.25;;;20.50;99.90;;;;;;7350925;32;20297;-59
2023/06/21 20:48:02;;;;;;;6.00;3.20;;;20.50;99.90;;;;;;7329682;32;20349;-56
2023/06/21 20:52:04;;;;;;;4.03;2.75;;;20.40;99.90;;;;;;7345286;32;20205;-57
2023/06/21 20:56:05;;;;;;;5.72;3.10;;;20.40;99.90;;;;;;7348084;32;20133;-56
2023/06/21 21:00:10;;;;;;;4.53;3.33;;;20.40;99.90;;;;;;7349891;32;20258;-56